Flight Track Log - Related Links

Times and Time Zones

All times are in EDT time to prevent confusion due to time zone crossing. See the SWA34 flight status page for this flight to view local times or setup timezone preferences in your user account.

Time Position Orientation Groundspeed Altitude Reporting Facility
EDT Latitude Longitude Course Direction KTS MPH feet Rate Location/Type
Wed 08:31:52 AM 30.4858 -81.6392 69° East 226 260 2,000  Level Jacksonville Center
Wed 08:32:52 AM 30.5547 -81.6308 North 260 299 4,800 3,223 Climbing Jacksonville Center
Wed 08:33:53 AM 30.6342 -81.6394 355° North 283 326 8,500 2,931 Climbing Jacksonville Center
Wed 08:35:03 AM 30.7261 -81.6506 354° North 341 392 11,200 2,862 Climbing Jacksonville Center
Wed 08:36:03 AM 30.8222 -81.6614 354° North 353 406 14,700 3,322 Climbing Jacksonville Center
Wed 08:37:04 AM 30.9225 -81.6647 358° North 353 406 17,900 2,850 Climbing Jacksonville Center
Wed 08:38:03 AM 31.0267 -81.6561 North 358 412 20,400 2,521 Climbing Jacksonville Center
Wed 08:39:03 AM 31.1328 -81.6158 18° North 381 438 22,900 1,800 Climbing Jacksonville Center
Wed 08:40:03 AM 31.2453 -81.5706 19° North 397 457 24,000 2,100 Climbing Jacksonville Center
Wed 08:41:03 AM 31.3658 -81.5178 20° North 407 468 27,100 2,550 Climbing Jacksonville Center
Wed 08:42:03 AM 31.4656 -81.4775 19° North 421 484 29,100 2,050 Climbing Jacksonville Center
Wed 08:43:03 AM 31.5881 -81.4267 19° North 426 490 31,200 1,934 Climbing Jacksonville Center
Wed 08:44:04 AM 31.6983 -81.3836 18° North 421 484 33,000 1,700 Climbing Jacksonville Center
Wed 08:45:03 AM 31.7981 -81.3428 19° North 427 491 34,600 958 Climbing Jacksonville Center
Wed 08:46:03 AM 31.9247 -81.2942 18° North 427 491 34,900 200 Climbing Jacksonville Center
Wed 08:47:03 AM 32.0328 -81.2458 21° North 427 491 35,000 50 Climbing Jacksonville Center
Wed 08:48:03 AM 32.1447 -81.1922 22° Northeast 420 483 35,000  Level Jacksonville Center
Wed 08:49:03 AM 32.2267 -81.0778 50° Northeast 428 493 35,000  Level Jacksonville Center
Wed 08:50:03 AM 32.2961 -80.9731 52° Northeast 441 507 35,000 200 Level Jacksonville Center
Wed 08:51:03 AM 32.3797 -80.8433 53° Northeast 446 513 35,400 900 Climbing Jacksonville Center
Wed 08:52:03 AM 32.4569 -80.7236 53° Northeast 446 513 36,800 800 Climbing Jacksonville Center
Wed 08:53:03 AM 32.5342 -80.6033 53° Northeast 446 513 37,000 100 Climbing Jacksonville Center
Wed 08:54:03 AM 32.6092 -80.4856 53° Northeast 446 513 37,000  Level Jacksonville Center
Wed 08:55:03 AM 32.6925 -80.3747 48° Northeast 446 513 37,000  Level Jacksonville Center
Wed 08:56:03 AM 32.7867 -80.2808 40° Northeast 433 498 37,000  Level Jacksonville Center
Wed 08:57:03 AM 32.8786 -80.1867 41° Northeast 433 498 37,000  Level Jacksonville Center
Wed 08:58:03 AM 32.9725 -80.0847 42° Northeast 438 504 37,000  Level Jacksonville Center
Wed 08:59:03 AM 33.0683 -79.9900 40° Northeast 448 516 37,000  Level Jacksonville Center
Wed 09:00:03 AM 33.1522 -79.9103 38° Northeast 441 507 37,000  Level Jacksonville Center
Wed 09:01:03 AM 33.2439 -79.8153 41° Northeast 441 507 37,000  Level Jacksonville Center
Wed 09:02:03 AM 33.3375 -79.7203 40° Northeast 441 507 37,000  Level Jacksonville Center
Wed 09:03:03 AM 33.4289 -79.6250 41° Northeast 441 507 37,000  Level Jacksonville Center
Wed 09:04:03 AM 33.5225 -79.5292 40° Northeast 441 507 37,000 -350 Level Jacksonville Center
Wed 09:05:03 AM 33.6139 -79.4361 40° Northeast 436 502 36,300 -872 Descending Jacksonville Center
Wed 09:06:55 AM 33.7906 -79.2497 41° Northeast 447 514 34,500 -942 Descending Washington Center
Wed 09:07:55 AM 33.8831 -79.1511 41° Northeast 447 514 33,600 -750 Descending Washington Center
Wed 09:08:55 AM 33.9756 -79.0575 40° Northeast 447 514 33,000 -300 Descending Washington Center
Wed 09:09:55 AM 34.0661 -78.9611 41° Northeast 447 514 33,000  Level Washington Center
Wed 09:10:55 AM 34.1583 -78.8644 41° Northeast 442 509 33,000  Level Washington Center
Wed 09:11:55 AM 34.2528 -78.7678 40° Northeast 442 509 33,000  Level Washington Center
Wed 09:12:55 AM 34.3492 -78.6683 40° Northeast 442 509 33,000  Level Washington Center
Wed 09:13:55 AM 34.4394 -78.5708 42° Northeast 442 509 33,000  Level Washington Center
Wed 09:14:55 AM 34.5336 -78.4686 42° Northeast 442 509 33,000  Level Washington Center
Wed 09:15:55 AM 34.6300 -78.3708 40° Northeast 450 518 33,000  Level Washington Center
Wed 09:16:55 AM 34.7239 -78.2681 42° Northeast 450 518 33,000  Level Washington Center
Wed 09:17:55 AM 34.7989 -78.1844 42° Northeast 450 518 33,000  Level Washington Center
Wed 09:18:55 AM 34.8994 -78.0686 43° Northeast 450 518 33,000 -500 Level Washington Center
Wed 09:19:55 AM 34.9933 -77.9703 41° Northeast 450 518 32,000 -1,000 Descending Washington Center
Wed 09:20:55 AM 35.0828 -77.8686 43° Northeast 445 512 31,000 -1,000 Descending Washington Center
Wed 09:21:55 AM 35.1744 -77.7722 41° Northeast 440 506 30,000 -1,050 Descending Washington Center
Wed 09:22:55 AM 35.2700 -77.6656 42° Northeast 430 495 28,900 -1,050 Descending Washington Center
Wed 09:23:55 AM 35.3614 -77.5711 40° Northeast 424 488 27,900 -950 Descending Washington Center
Wed 09:24:55 AM 35.4628 -77.4969 31° Northeast 424 488 27,000 -950 Descending Washington Center
Wed 09:25:55 AM 35.5661 -77.4281 28° Northeast 424 488 26,000 -1,000 Descending Washington Center
Wed 09:26:55 AM 35.6672 -77.3586 29° Northeast 419 482 25,000 -1,000 Descending Washington Center
Wed 09:27:55 AM 35.7686 -77.2867 30° Northeast 419 482 24,000 -1,400 Descending Washington Center
Wed 09:28:55 AM 35.8694 -77.2222 27° Northeast 414 476 22,200 -1,900 Descending Washington Center
Wed 09:29:55 AM 35.9686 -77.1525 30° Northeast 409 471 20,200 -1,526 Descending Washington Center
Wed 09:30:49 AM 36.0464 -77.1025 27° Northeast 390 449 19,300 -1,068 Descending Washington Center
Wed 09:31:08 AM 36.0781 -77.0825 27° Northeast 385 443 18,900 -1,091 Descending Washington Center
Wed 09:31:55 AM 36.1494 -77.0247 33° Northeast 379 436 18,100 -897 Descending Washington Center
Wed 09:32:55 AM 36.2419 -76.9647 28° Northeast 379 436 17,300 -1,000 Descending Washington Center
Wed 09:33:55 AM 36.3283 -76.9042 29° Northeast 374 430 16,100 -1,575 Descending Washington Center
Wed 09:34:15 AM 36.3597 -76.8817 30° Northeast 359 413 15,200 -2,500 Descending Washington Center
Wed 09:34:55 AM 36.4083 -76.8308 40° Northeast 361 415 13,600 -2,361 Descending Washington Center
Wed 09:35:16 AM 36.4317 -76.8028 44° Northeast 354 407 12,800 -2,400 Descending Washington Center
Wed 09:35:55 AM 36.4697 -76.7361 55° Northeast 350 403 11,200 -2,100 Descending Washington Center
Wed 09:36:16 AM 36.4828 -76.6950 68° East 348 400 10,700 -1,100 Descending Washington Center
Wed 09:36:55 AM 36.5000 -76.6281 72° East 334 384 10,100 -1,075 Descending Washington Center
Wed 09:37:23 AM 36.5128 -76.5869 69° East 301 346 9,500 -1,500 Descending Washington Center
Wed 09:37:55 AM 36.5278 -76.5303 72° East 311 358 8,600 -1,770 Descending Washington Center
Wed 09:38:24 AM 36.5386 -76.4942 70° East 294 338 7,700 -1,800 Descending Washington Center
Wed 09:38:55 AM 36.5558 -76.4350 70° East 304 350 6,800 -1,636 Descending Washington Center
Wed 09:39:30 AM 36.5792 -76.3833 61° Northeast 286 329 5,900 -1,600 Descending Washington Center
Wed 09:39:55 AM 36.6064 -76.3606 34° Northeast 280 322 5,200 -982 Descending Washington Center
Wed 09:40:25 AM 36.6378 -76.3375 31° Northeast 283 326 5,000 -132 Descending Washington Center
Wed 09:41:26 AM 36.7069 -76.2889 29° Northeast 283 326 5,000  Level Washington Center
Wed 09:42:20 AM 36.7656 -76.2453 31° Northeast 269 310 5,000  Level Washington Center

Login

Don't have an account? Register now (free) for customized features, flight alerts, and more!